Time;durP1;ratioP1;P1;durP2;ratioP2;P2;SDS_P1;SDS_P2;PMS_P1;PMS_P2;Temp;Humidity;BMP_temperature;BMP_pressure;BME280_temperature;BME280_humidity;BME280_pressure;Samples;Min_cycle;Max_cycle;Signal;HPM_P1;HPM_P2
2023/04/22 06:17:18;;;;;;;7.22;4.10;;;12.00;99.90;;;;;;6367372;27;20452;-74
2023/04/22 06:20:20;;;;;;;6.68;4.45;;;12.10;99.90;;;;;;6362181;28;20040;-74
2023/04/22 06:23:22;;;;;;;7.25;4.88;;;12.20;99.90;;;;;;6361823;28;20050;-74
2023/04/22 06:26:24;;;;;;;8.13;4.68;;;12.50;99.90;;;;;;6330334;28;20069;-75
2023/04/22 06:29:26;;;;;;;7.95;4.90;;;12.70;99.90;;;;;;6361449;28;20388;-74
2023/04/22 06:32:29;;;;;;;6.80;4.70;;;12.90;99.90;;;;;;6349796;28;20044;-75
2023/04/22 06:35:31;;;;;;;8.13;4.50;;;13.10;99.90;;;;;;6369224;27;20051;-76
2023/04/22 06:38:33;;;;;;;7.20;4.20;;;13.20;99.90;;;;;;6338669;28;20127;-73
2023/04/22 06:41:35;;;;;;;10.18;4.60;;;13.40;99.90;;;;;;6352475;28;20044;-73
2023/04/22 06:44:37;;;;;;;7.13;4.72;;;13.40;99.90;;;;;;6350637;28;20122;-75
2023/04/22 06:47:41;;;;;;;8.75;5.07;;;13.50;99.90;;;;;;6368240;27;20093;-77
2023/04/22 06:50:43;;;;;;;8.20;4.82;;;13.50;99.90;;;;;;6358164;28;20043;-76
2023/04/22 06:53:45;;;;;;;8.40;5.40;;;13.60;99.90;;;;;;6359174;27;20059;-75
2023/04/22 06:56:47;;;;;;;10.40;5.43;;;13.40;99.90;;;;;;6347863;28;20376;-75
2023/04/22 06:59:49;;;;;;;10.75;5.03;;;13.50;99.90;;;;;;6364712;28;20041;-77
2023/04/22 07:02:52;;;;;;;10.57;4.90;;;13.50;99.90;;;;;;6363298;28;20063;-76
2023/04/22 07:05:54;;;;;;;11.32;4.68;;;13.70;99.90;;;;;;6372656;27;20063;-74
2023/04/22 07:08:56;;;;;;;8.95;4.78;;;13.80;99.90;;;;;;6349177;28;20054;-73
2023/04/22 07:11:58;;;;;;;7.78;4.60;;;13.80;99.90;;;;;;6368984;28;20043;-74
2023/04/22 07:15:00;;;;;;;7.55;4.88;;;13.90;99.90;;;;;;6344446;28;20048;-74
2023/04/22 07:18:03;;;;;;;8.23;5.00;;;13.80;99.90;;;;;;6343153;28;20054;-75
2023/04/22 07:21:05;;;;;;;7.35;5.22;;;13.90;99.90;;;;;;6337361;28;20039;-74
2023/04/22 07:24:10;;;;;;;9.13;5.07;;;14.20;99.90;;;;;;6360414;28;20055;-77
2023/04/22 07:27:13;;;;;;;8.82;5.20;;;14.10;99.90;;;;;;6344024;28;20044;-76
2023/04/22 07:30:15;;;;;;;8.20;5.00;;;14.30;99.90;;;;;;6320115;28;20048;-77
2023/04/22 07:33:19;;;;;;;7.15;4.97;;;14.10;99.90;;;;;;6331798;28;20043;-76
2023/04/22 07:36:21;;;;;;;7.63;5.38;;;14.30;99.90;;;;;;6328067;28;20040;-75
2023/04/22 07:39:23;;;;;;;12.00;5.50;;;14.40;99.90;;;;;;6320030;28;20040;-74
2023/04/22 07:42:25;;;;;;;10.07;5.43;;;14.50;99.90;;;;;;6326209;28;20074;-75
2023/04/22 07:45:27;;;;;;;7.85;5.50;;;14.50;99.90;;;;;;6325919;28;20070;-75
2023/04/22 07:48:30;;;;;;;7.43;5.43;;;14.40;99.90;;;;;;6316597;28;20048;-77
2023/04/22 07:51:34;;;;;;;7.30;5.10;;;14.60;99.90;;;;;;6327957;28;20047;-76
2023/04/22 07:54:36;;;;;;;7.05;4.97;;;14.70;99.90;;;;;;6355131;28;20078;-78
2023/04/22 07:57:38;;;;;;;9.55;5.60;;;14.90;99.90;;;;;;6360861;28;20052;-75
2023/04/22 08:00:40;;;;;;;8.70;5.03;;;14.90;99.90;;;;;;6339549;28;20044;-75
2023/04/22 08:03:43;;;;;;;7.82;5.00;;;15.00;99.90;;;;;;6325973;28;20093;-75
2023/04/22 08:06:45;;;;;;;7.20;4.97;;;15.10;99.90;;;;;;6325674;28;20040;-75
2023/04/22 08:09:47;;;;;;;8.40;5.05;;;15.00;99.90;;;;;;6324942;28;20064;-75
2023/04/22 08:12:49;;;;;;;7.28;5.18;;;14.90;99.90;;;;;;6325986;28;20050;-75
2023/04/22 08:15:51;;;;;;;7.50;5.50;;;15.00;99.90;;;;;;6325379;28;20166;-76
2023/04/22 08:18:56;;;;;;;8.75;5.00;;;14.90;99.90;;;;;;6323446;28;20055;-76
2023/04/22 08:21:58;;;;;;;8.82;4.95;;;15.00;99.90;;;;;;6343345;28;20047;-76
2023/04/22 08:25:00;;;;;;;7.30;5.25;;;14.90;99.90;;;;;;6335080;28;20054;-78
2023/04/22 08:28:02;;;;;;;8.45;5.32;;;15.10;99.90;;;;;;6326054;28;20051;-78
2023/04/22 08:31:05;;;;;;;8.98;4.50;;;15.20;99.90;;;;;;6325201;28;20055;-76
2023/04/22 08:34:08;;;;;;;6.70;3.80;;;15.20;99.90;;;;;;6326457;28;20044;-79
2023/04/22 08:37:10;;;;;;;6.88;3.80;;;15.30;99.90;;;;;;6328359;28;20044;-79
2023/04/22 08:40:12;;;;;;;8.40;3.78;;;15.40;99.90;;;;;;6330701;28;20044;-74
2023/04/22 08:43:14;;;;;;;5.38;3.47;;;15.40;99.90;;;;;;6337809;28;20052;-75
2023/04/22 08:46:18;;;;;;;7.18;3.30;;;15.30;99.60;;;;;;6321450;28;20036;-77
2023/04/22 08:49:24;;;;;;;5.10;3.00;;;15.30;99.00;;;;;;6325194;28;20048;-78
2023/04/22 08:52:28;;;;;;;5.68;2.90;;;15.50;98.80;;;;;;6324016;28;20050;-78
2023/04/22 08:55:31;;;;;;;5.57;3.00;;;15.60;99.00;;;;;;6332621;28;20051;-76
2023/04/22 08:58:34;;;;;;;5.93;3.30;;;15.70;98.90;;;;;;6350929;28;20046;-75
2023/04/22 09:01:38;;;;;;;5.90;3.30;;;15.80;98.80;;;;;;6346416;28;20039;-76
2023/04/22 09:04:42;;;;;;;5.65;3.13;;;16.00;98.70;;;;;;6323296;28;20477;-77
2023/04/22 09:07:45;;;;;;;5.20;3.00;;;15.90;98.80;;;;;;6327038;28;20047;-77
2023/04/22 09:10:47;;;;;;;7.03;3.28;;;16.00;99.00;;;;;;6344604;28;20044;-76
2023/04/22 09:13:49;;;;;;;5.85;3.50;;;16.20;98.20;;;;;;6340410;28;20364;-75
2023/04/22 09:16:51;;;;;;;6.60;3.60;;;16.40;98.30;;;;;;6322906;28;20091;-75
2023/04/22 09:19:59;;;;;;;7.90;3.58;;;16.60;98.60;;;;;;6322718;28;20055;-77
2023/04/22 09:23:04;;;;;;;5.97;3.30;;;16.70;98.10;;;;;;6325663;28;20044;-74
2023/04/22 09:26:08;;;;;;;6.82;3.53;;;16.80;97.90;;;;;;6327803;28;20392;-78
2023/04/22 09:29:15;;;;;;;7.18;3.20;;;16.90;97.40;;;;;;6323964;28;20548;-76
2023/04/22 09:32:17;;;;;;;6.07;3.30;;;16.90;97.60;;;;;;6323645;28;20526;-75
2023/04/22 09:35:27;;;;;;;7.63;3.80;;;17.00;97.60;;;;;;6323338;28;20043;-76
2023/04/22 09:38:32;;;;;;;6.70;3.80;;;17.10;97.80;;;;;;6323790;28;20044;-76
2023/04/22 09:41:37;;;;;;;6.72;3.47;;;17.10;97.30;;;;;;6323816;28;20044;-75
2023/04/22 09:44:40;;;;;;;6.97;3.55;;;17.30;97.10;;;;;;6323278;28;20071;-76
2023/04/22 09:47:42;;;;;;;6.57;3.50;;;17.30;96.60;;;;;;6323703;28;20153;-76
2023/04/22 09:50:47;;;;;;;7.20;3.17;;;17.40;96.60;;;;;;6322837;28;20412;-76
2023/04/22 09:54:03;;;;;;;6.80;3.63;;;17.50;96.60;;;;;;6323399;28;20052;-76
2023/04/22 09:57:04;;;;;;;5.22;3.00;;;17.60;96.30;;;;;;6323104;28;20055;-78
2023/04/22 10:00:09;;;;;;;6.70;3.05;;;17.70;96.00;;;;;;6322943;28;20051;-77
2023/04/22 10:03:11;;;;;;;5.15;3.00;;;17.80;95.50;;;;;;6322594;28;20036;-78
2023/04/22 10:06:14;;;;;;;7.07;3.10;;;17.90;95.80;;;;;;6323085;28;20396;-76
2023/04/22 10:09:19;;;;;;;4.68;3.00;;;18.00;95.00;;;;;;6322972;28;20055;-77
2023/04/22 10:12:21;;;;;;;4.97;3.15;;;18.10;95.00;;;;;;6322736;28;20095;-77
2023/04/22 10:15:25;;;;;;;6.13;2.70;;;18.20;95.10;;;;;;6322677;28;20166;-78
2023/04/22 10:18:28;;;;;;;4.93;2.83;;;18.20;93.90;;;;;;6322778;28;20040;-77
2023/04/22 10:21:33;;;;;;;4.70;2.65;;;18.30;94.30;;;;;;6323272;28;20048;-75
2023/04/22 10:24:37;;;;;;;4.70;2.55;;;18.40;93.80;;;;;;6323179;28;20504;-75
2023/04/22 10:27:39;;;;;;;4.55;2.50;;;18.60;92.80;;;;;;6323092;28;20048;-77
2023/04/22 10:30:41;;;;;;;3.97;2.30;;;18.70;92.60;;;;;;6323185;28;20060;-78
2023/04/22 10:33:43;;;;;;;4.45;2.70;;;18.80;92.10;;;;;;6324034;28;20134;-78
2023/04/22 10:37:01;;;;;;;5.40;2.60;;;18.80;91.20;;;;;;6324699;28;20059;-76
2023/04/22 10:40:14;;;;;;;3.78;2.30;;;19.00;91.80;;;;;;6334819;28;20233;-77
2023/04/22 10:43:20;;;;;;;6.65;2.35;;;19.10;90.40;;;;;;6344607;28;20055;-75
2023/04/22 10:46:57;;;;;;;4.78;2.35;;;19.30;90.30;;;;;;6341303;28;20048;-77
2023/04/22 10:50:15;;;;;;;4.03;2.35;;;19.40;89.50;;;;;;6334304;28;20396;-76
2023/04/22 10:53:39;;;;;;;4.25;2.20;;;19.50;87.70;;;;;;6322942;28;20050;-76
2023/04/22 10:57:06;;;;;;;4.60;2.47;;;19.60;88.10;;;;;;6321149;28;20504;-80
2023/04/22 11:00:40;;;;;;;5.25;2.10;;;19.90;89.20;;;;;;6322254;28;20048;-77
2023/04/22 11:03:43;;;;;;;6.95;2.58;;;20.00;84.40;;;;;;6327061;28;20063;-77
2023/04/22 11:06:45;;;;;;;4.40;2.10;;;20.10;83.40;;;;;;6328092;28;20177;-77
2023/04/22 11:09:53;;;;;;;4.90;2.05;;;20.10;79.70;;;;;;6327366;28;20056;-76
2023/04/22 11:12:56;;;;;;;3.97;2.03;;;20.20;83.30;;;;;;6333537;28;20040;-74
2023/04/22 11:15:58;;;;;;;3.83;2.13;;;20.30;81.50;;;;;;6330351;28;20519;-75
2023/04/22 11:19:00;;;;;;;3.95;2.10;;;20.40;81.40;;;;;;6328310;28;20477;-76
2023/04/22 11:22:02;;;;;;;6.10;2.00;;;20.40;76.20;;;;;;6329879;28;20059;-75
2023/04/22 11:25:08;;;;;;;4.75;1.65;;;20.40;75.90;;;;;;6335700;28;20051;-75
2023/04/22 11:28:10;;;;;;;6.88;1.90;;;20.60;72.30;;;;;;6331381;28;20052;-72
2023/04/22 11:31:13;;;;;;;4.28;2.20;;;20.70;72.40;;;;;;6325923;28;20070;-74
2023/04/22 11:34:15;;;;;;;4.18;1.77;;;20.80;72.60;;;;;;6326033;28;20401;-74
2023/04/22 11:37:19;;;;;;;4.50;1.70;;;20.90;71.30;;;;;;6326121;28;20048;-74
2023/04/22 11:40:25;;;;;;;5.32;1.90;;;20.90;70.90;;;;;;6326755;28;20040;-77
2023/04/22 11:43:27;;;;;;;4.70;1.63;;;20.90;69.90;;;;;;6325068;28;20040;-74
2023/04/22 11:46:30;;;;;;;5.10;1.77;;;21.00;67.30;;;;;;6351003;28;20055;-74
2023/04/22 11:49:32;;;;;;;4.80;1.50;;;21.20;65.60;;;;;;6324434;28;20044;-74
2023/04/22 11:52:46;;;;;;;3.97;1.83;;;21.40;64.60;;;;;;6328720;28;20178;-74
2023/04/22 11:55:51;;;;;;;4.28;1.52;;;21.50;65.20;;;;;;6317900;28;20627;-72
2023/04/22 11:58:54;;;;;;;4.25;1.83;;;21.60;64.00;;;;;;6323031;28;20582;-73
2023/04/22 12:01:56;;;;;;;5.20;1.90;;;21.80;63.50;;;;;;6319091;28;20048;-75
2023/04/22 12:04:59;;;;;;;4.17;1.60;;;22.00;62.00;;;;;;6320397;28;20131;-76
2023/04/22 12:08:02;;;;;;;5.53;1.95;;;22.10;63.50;;;;;;6318347;28;20217;-75
2023/04/22 12:11:07;;;;;;;;;;;22.30;63.80;;;;;;6325255;28;20177;-76
2023/04/22 12:14:09;;;;;;;5.28;1.65;;;22.50;62.30;;;;;;6324386;28;20356;-75
2023/04/22 12:17:18;;;;;;;5.05;1.60;;;22.70;60.70;;;;;;6339303;28;20055;-74
2023/04/22 12:20:21;;;;;;;4.47;1.58;;;22.70;62.10;;;;;;6343449;28;20051;-74
2023/04/22 12:23:23;;;;;;;4.82;1.80;;;22.60;58.30;;;;;;6340892;28;20048;-75
2023/04/22 12:26:27;;;;;;;4.88;2.30;;;22.50;58.20;;;;;;6322579;28;20048;-75
2023/04/22 12:29:32;;;;;;;4.32;1.80;;;22.50;57.60;;;;;;6333613;28;20051;-76
2023/04/22 12:32:34;;;;;;;4.38;1.70;;;22.60;58.30;;;;;;6337286;28;20055;-76
2023/04/22 12:35:36;;;;;;;4.72;1.90;;;22.60;57.10;;;;;;6330349;28;20052;-77
2023/04/22 12:38:40;;;;;;;4.40;1.75;;;22.70;58.30;;;;;;6322725;28;20511;-75
2023/04/22 12:41:46;;;;;;;4.40;1.60;;;22.80;57.20;;;;;;6327526;28;20668;-76
2023/04/22 12:44:48;;;;;;;4.03;1.60;;;22.80;55.90;;;;;;6323218;28;20128;-77
2023/04/22 12:47:52;;;;;;;3.53;1.60;;;23.10;55.80;;;;;;6347513;28;20043;-74
2023/04/22 12:50:54;;;;;;;3.80;1.65;;;23.50;55.40;;;;;;6349149;28;20413;-75
2023/04/22 12:53:56;;;;;;;4.95;1.60;;;23.80;55.40;;;;;;6323202;28;20445;-75
2023/04/22 12:57:00;;;;;;;3.78;1.55;;;23.70;56.70;;;;;;6334249;28;20508;-73
2023/04/22 13:00:03;;;;;;;5.18;1.90;;;23.60;56.60;;;;;;6322993;28;20052;-75
2023/04/22 13:03:05;;;;;;;5.22;2.30;;;23.40;56.20;;;;;;6324497;28;20056;-74
2023/04/22 13:06:19;;;;;;;4.30;1.55;;;23.30;57.00;;;;;;6332928;28;20059;-76
2023/04/22 13:09:21;;;;;;;3.72;2.03;;;23.30;56.70;;;;;;6320233;28;20181;-77
2023/04/22 13:12:24;;;;;;;4.10;1.70;;;23.30;57.60;;;;;;6321613;28;20056;-74
2023/04/22 13:15:26;;;;;;;;;;;23.20;56.60;;;;;;6320548;28;20048;-75
2023/04/22 13:18:28;;;;;;;4.45;1.70;;;22.80;56.30;;;;;;6320878;28;20361;-75
2023/04/22 13:21:30;;;;;;;4.82;1.67;;;22.80;56.40;;;;;;6323338;28;20408;-74
2023/04/22 13:24:32;;;;;;;4.37;1.60;;;22.60;55.30;;;;;;6359474;28;20069;-76
2023/04/22 13:27:36;;;;;;;4.25;1.77;;;22.50;57.50;;;;;;6342750;28;20035;-77
2023/04/22 13:30:38;;;;;;;4.38;1.73;;;22.30;58.20;;;;;;6328405;28;20142;-74
2023/04/22 13:33:39;;;;;;;3.72;1.98;;;22.10;58.50;;;;;;6321630;28;20058;-80
2023/04/22 13:36:41;;;;;;;4.07;1.90;;;22.00;58.60;;;;;;6318617;28;20059;-74
2023/04/22 13:39:43;;;;;;;3.80;1.60;;;22.00;59.20;;;;;;6320573;28;20497;-74
2023/04/22 13:42:47;;;;;;;5.63;1.77;;;22.00;58.90;;;;;;6325940;28;20048;-74
2023/04/22 13:45:49;;;;;;;3.90;1.67;;;21.90;57.90;;;;;;6345682;28;20043;-79
2023/04/22 13:48:51;;;;;;;4.30;1.63;;;21.80;57.90;;;;;;6326029;28;20067;-78
2023/04/22 13:51:53;;;;;;;3.50;1.75;;;21.70;59.20;;;;;;6319213;28;20508;-76
2023/04/22 13:54:55;;;;;;;5.32;1.77;;;21.60;59.70;;;;;;6345433;28;20055;-76
2023/04/22 13:57:59;;;;;;;5.03;2.20;;;21.50;59.80;;;;;;6345414;28;20078;-76
2023/04/22 14:01:01;;;;;;;5.45;1.95;;;21.40;60.70;;;;;;6341001;28;20432;-75
2023/04/22 14:04:04;;;;;;;6.75;3.50;;;21.30;60.30;;;;;;6344237;28;20180;-76
2023/04/22 14:07:05;;;;;;;6.85;3.50;;;21.30;59.10;;;;;;6344969;28;20055;-74
2023/04/22 14:10:10;;;;;;;5.10;2.40;;;21.20;60.60;;;;;;6345473;28;20058;-75
2023/04/22 14:13:14;;;;;;;6.85;2.50;;;21.20;59.60;;;;;;6324459;28;20048;-75
2023/04/22 14:16:18;;;;;;;5.25;2.30;;;21.10;61.30;;;;;;6316627;28;20402;-76
2023/04/22 14:19:22;;;;;;;4.43;2.00;;;21.10;62.00;;;;;;6318284;28;20048;-76
2023/04/22 14:22:24;;;;;;;3.45;1.60;;;21.10;62.60;;;;;;6331985;28;20043;-76
2023/04/22 14:25:25;;;;;;;5.15;1.92;;;21.00;60.70;;;;;;6344907;28;20051;-73
2023/04/22 14:28:29;;;;;;;5.38;1.88;;;21.00;61.80;;;;;;6345518;28;20052;-74
2023/04/22 14:31:30;;;;;;;4.93;2.25;;;21.00;60.40;;;;;;6335052;28;20526;-74
2023/04/22 14:34:32;;;;;;;5.00;1.80;;;21.00;60.00;;;;;;6333054;28;20054;-78
2023/04/22 14:37:34;;;;;;;4.22;1.80;;;21.00;60.60;;;;;;6320308;28;20062;-75
2023/04/22 14:40:37;;;;;;;6.70;2.35;;;21.00;60.90;;;;;;6339902;28;20043;-74
2023/04/22 14:43:40;;;;;;;4.60;1.83;;;21.00;62.00;;;;;;6325865;28;20059;-75
2023/04/22 14:46:42;;;;;;;4.10;1.63;;;21.00;61.00;;;;;;6324339;28;20052;-75
2023/04/22 14:49:44;;;;;;;4.53;2.30;;;21.00;59.70;;;;;;6324635;28;20443;-78
2023/04/22 14:52:46;;;;;;;4.13;2.00;;;21.00;60.10;;;;;;6341538;28;20122;-75
2023/04/22 14:55:48;;;;;;;4.30;1.83;;;21.10;60.20;;;;;;6348611;28;20043;-78
2023/04/22 14:58:52;;;;;;;4.07;1.77;;;21.10;60.40;;;;;;6349667;28;20051;-76
2023/04/22 15:01:53;;;;;;;;;;;21.20;60.70;;;;;;6341363;28;20050;-77
2023/04/22 15:04:55;;;;;;;5.75;1.65;;;21.30;60.10;;;;;;6323500;28;19931;-78
2023/04/22 15:07:57;;;;;;;6.70;1.63;;;21.40;60.00;;;;;;6323783;28;20548;-79
2023/04/22 15:10:59;;;;;;;4.45;1.90;;;21.40;59.30;;;;;;6325610;28;20492;-73
2023/04/22 15:14:03;;;;;;;5.38;1.90;;;21.40;59.50;;;;;;6348734;28;20048;-74
2023/04/22 15:17:05;;;;;;;4.60;1.60;;;21.30;60.10;;;;;;6339744;28;20056;-76
2023/04/22 15:20:08;;;;;;;5.13;1.88;;;21.30;58.10;;;;;;6326416;28;20643;-76
2023/04/22 15:23:10;;;;;;;14.38;6.45;;;21.30;57.00;;;;;;6336475;28;20059;-73
2023/04/22 15:26:13;;;;;;;5.13;2.20;;;21.30;58.40;;;;;;6340476;28;20059;-76
2023/04/22 15:29:17;;;;;;;4.30;1.75;;;21.30;58.60;;;;;;6324804;28;20186;-77
2023/04/22 15:32:19;;;;;;;4.13;1.60;;;21.40;59.40;;;;;;6326068;28;20040;-75
2023/04/22 15:35:23;;;;;;;3.20;1.70;;;21.40;59.60;;;;;;6349003;28;20051;-79
2023/04/22 15:38:25;;;;;;;4.82;1.83;;;21.30;60.00;;;;;;6346996;28;20108;-76
2023/04/22 15:41:27;;;;;;;5.75;2.25;;;21.20;59.80;;;;;;6344496;28;20051;-78
2023/04/22 15:44:30;;;;;;;5.88;2.35;;;21.20;60.30;;;;;;6330379;28;20135;-78
2023/04/22 15:47:33;;;;;;;3.85;1.60;;;21.20;61.70;;;;;;6322902;28;20131;-76
2023/04/22 15:50:36;;;;;;;3.60;1.75;;;21.10;58.60;;;;;;6322637;28;20052;-75
2023/04/22 15:53:38;;;;;;;6.40;1.70;;;21.10;60.20;;;;;;6333865;28;20048;-79
2023/04/22 15:56:40;;;;;;;3.95;1.70;;;21.10;60.70;;;;;;6348451;28;20412;-81
2023/04/22 15:59:43;;;;;;;5.65;1.83;;;21.10;60.50;;;;;;6334268;28;20128;-77
2023/04/22 16:02:53;;;;;;;4.40;1.70;;;21.10;60.40;;;;;;6340642;28;20464;-78
2023/04/22 16:05:55;;;;;;;5.43;2.22;;;21.10;61.40;;;;;;6332392;28;20052;-79
2023/04/22 16:08:57;;;;;;;4.93;1.90;;;21.00;61.00;;;;;;6320804;28;20063;-78
2023/04/22 16:12:00;;;;;;;6.10;1.70;;;20.90;61.30;;;;;;6323397;28;20051;-78
2023/04/22 16:15:04;;;;;;;4.35;1.70;;;20.80;62.60;;;;;;6322235;28;20052;-79
2023/04/22 16:18:06;;;;;;;3.40;1.75;;;20.70;62.70;;;;;;6320968;28;20044;-80
2023/04/22 16:21:09;;;;;;;4.78;1.77;;;20.60;62.40;;;;;;6328423;28;20510;-76
2023/04/22 16:24:11;;;;;;;5.57;1.70;;;20.60;62.90;;;;;;6346774;28;20131;-80
2023/04/22 16:27:15;;;;;;;4.72;1.80;;;20.60;62.60;;;;;;6340079;28;20378;-78
2023/04/22 16:30:18;;;;;;;3.60;1.50;;;20.50;62.80;;;;;;6321313;28;20068;-74
2023/04/22 16:33:20;;;;;;;6.32;1.83;;;20.50;62.50;;;;;;6321993;28;20051;-78
2023/04/22 16:36:23;;;;;;;6.22;1.77;;;20.40;62.40;;;;;;6317110;28;20058;-77
2023/04/22 16:39:25;;;;;;;5.60;2.10;;;20.40;63.10;;;;;;6317033;28;20527;-78
2023/04/22 16:42:27;;;;;;;6.03;1.98;;;20.40;64.00;;;;;;6318565;28;20059;-77
2023/04/22 16:45:30;;;;;;;3.30;1.50;;;20.40;63.80;;;;;;6311240;28;20800;-77
2023/04/22 16:48:32;;;;;;;;;;;20.30;64.00;;;;;;6315870;28;20441;-78
2023/04/22 16:51:34;;;;;;;5.72;2.03;;;20.30;63.90;;;;;;6320028;28;19923;-77
2023/04/22 16:54:36;;;;;;;4.05;1.80;;;20.20;64.30;;;;;;6343462;28;20092;-76
2023/04/22 16:57:38;;;;;;;6.47;1.85;;;20.20;64.70;;;;;;6326981;28;20052;-77
2023/04/22 17:00:41;;;;;;;5.45;1.80;;;20.20;64.90;;;;;;6314481;28;20044;-76
2023/04/22 17:03:43;;;;;;;5.90;2.17;;;20.10;65.20;;;;;;6302088;28;21513;-76
2023/04/22 17:06:45;;;;;;;6.35;2.00;;;20.10;65.10;;;;;;6317545;28;20052;-77
2023/04/22 17:09:47;;;;;;;5.82;1.77;;;20.10;65.20;;;;;;6320191;28;20059;-78
2023/04/22 17:12:51;;;;;;;5.35;1.77;;;20.00;65.20;;;;;;6319866;28;20389;-76
2023/04/22 17:15:54;;;;;;;8.23;2.20;;;20.00;65.40;;;;;;6316936;28;20044;-76
2023/04/22 17:18:56;;;;;;;5.07;1.95;;;19.90;65.90;;;;;;6316728;28;20044;-77
2023/04/22 17:22:00;;;;;;;6.10;1.98;;;19.90;66.50;;;;;;6320606;28;20485;-75
2023/04/22 17:25:02;;;;;;;5.18;2.03;;;19.80;67.50;;;;;;6314033;28;20256;-73
2023/04/22 17:28:04;;;;;;;7.30;2.20;;;19.80;68.10;;;;;;6316649;28;20532;-77
2023/04/22 17:31:08;;;;;;;5.18;2.10;;;19.70;69.10;;;;;;6330647;28;20100;-78
2023/04/22 17:34:12;;;;;;;6.50;2.15;;;19.70;68.80;;;;;;6301909;28;20046;-76
2023/04/22 17:37:14;;;;;;;5.43;2.20;;;19.60;69.30;;;;;;6314108;28;20048;-77
2023/04/22 17:40:16;;;;;;;5.50;2.10;;;19.50;69.50;;;;;;6318349;28;20040;-78
2023/04/22 17:43:18;;;;;;;4.03;1.55;;;19.50;69.70;;;;;;6328198;28;20040;-84
2023/04/22 17:46:21;;;;;;;4.07;1.92;;;19.40;70.20;;;;;;6322910;28;20500;-81
2023/04/22 17:49:23;;;;;;;;;;;19.40;70.00;;;;;;6315051;28;20052;-80
2023/04/22 17:52:25;;;;;;;4.53;1.85;;;19.30;70.10;;;;;;6315196;28;19943;-76
2023/04/22 17:55:33;;;;;;;4.38;2.00;;;19.30;70.20;;;;;;6316470;28;20052;-76
2023/04/22 17:58:37;;;;;;;6.05;2.20;;;19.20;70.30;;;;;;6318951;28;20164;-80
2023/04/22 18:01:41;;;;;;;6.18;2.28;;;19.20;70.40;;;;;;6324975;28;20131;-78
2023/04/22 18:04:43;;;;;;;4.75;2.03;;;19.10;70.70;;;;;;6316746;28;20377;-76
2023/04/22 18:07:45;;;;;;;4.75;2.00;;;19.10;70.90;;;;;;6313368;28;20056;-77
2023/04/22 18:10:50;;;;;;;5.10;1.95;;;19.00;70.70;;;;;;6317024;28;20520;-75
2023/04/22 18:13:52;;;;;;;5.85;2.25;;;19.00;70.60;;;;;;6316103;28;20137;-78
2023/04/22 18:16:55;;;;;;;5.55;2.58;;;19.00;71.70;;;;;;6317241;28;20520;-80
2023/04/22 18:19:57;;;;;;;;;;;18.90;72.00;;;;;;6317667;28;20048;-78
2023/04/22 18:22:59;;;;;;;5.15;2.50;;;18.90;72.60;;;;;;6315409;28;19924;-74
2023/04/22 18:26:08;;;;;;;5.65;2.10;;;18.60;74.60;;;;;;6315328;28;20496;-76
2023/04/22 18:29:10;;;;;;;5.20;2.20;;;18.40;75.40;;;;;;6317071;28;20036;-78
2023/04/22 18:32:15;;;;;;;5.97;2.17;;;18.20;76.60;;;;;;6318410;28;20048;-79
2023/04/22 18:35:18;;;;;;;5.25;2.08;;;18.10;77.40;;;;;;6319082;28;20774;-80
2023/04/22 18:38:21;;;;;;;5.28;2.40;;;17.90;78.30;;;;;;6317789;28;20052;-80
2023/04/22 18:41:24;;;;;;;5.80;2.17;;;17.90;79.10;;;;;;6319650;28;20046;-78
2023/04/22 18:44:26;;;;;;;4.83;2.03;;;17.70;80.60;;;;;;6323173;28;20330;-81
2023/04/22 18:47:29;;;;;;;5.75;2.20;;;17.60;81.00;;;;;;6326538;28;20044;-81
2023/04/22 18:50:31;;;;;;;5.03;2.45;;;17.50;81.50;;;;;;6323485;28;20059;-75
2023/04/22 18:53:34;;;;;;;5.13;2.25;;;17.50;82.10;;;;;;6323344;28;20066;-74
2023/04/22 18:56:36;;;;;;;6.72;2.30;;;17.40;82.40;;;;;;6333934;28;20123;-73
2023/04/22 18:59:38;;;;;;;4.63;2.20;;;17.30;83.00;;;;;;6320373;28;20111;-73
2023/04/22 19:02:42;;;;;;;7.82;3.90;;;17.20;84.40;;;;;;6320294;28;20079;-75
2023/04/22 19:05:45;;;;;;;14.98;8.20;;;17.20;85.80;;;;;;6337071;28;20686;-74
2023/04/22 19:08:47;;;;;;;8.15;4.90;;;17.10;86.50;;;;;;6318086;28;20622;-75
2023/04/22 19:11:49;;;;;;;4.40;2.30;;;17.10;87.60;;;;;;6318460;28;20058;-76
2023/04/22 19:14:51;;;;;;;6.43;2.85;;;17.00;88.40;;;;;;6317104;28;20052;-74
2023/04/22 19:17:54;;;;;;;6.30;2.33;;;17.00;90.00;;;;;;6318586;28;20562;-78
2023/04/22 19:20:57;;;;;;;5.22;2.67;;;17.00;90.30;;;;;;6329611;28;20048;-76
2023/04/22 19:23:59;;;;;;;4.35;2.50;;;17.00;90.60;;;;;;6325625;28;20048;-75
2023/04/22 19:27:02;;;;;;;5.22;2.58;;;16.90;91.00;;;;;;6341608;28;20409;-75
2023/04/22 19:30:06;;;;;;;4.32;2.05;;;16.90;91.30;;;;;;6331289;28;20051;-75
2023/04/22 19:33:10;;;;;;;5.13;2.60;;;16.90;91.50;;;;;;6347180;28;20047;-77
2023/04/22 19:36:12;;;;;;;6.47;2.38;;;16.90;91.90;;;;;;6319847;28;20062;-77
2023/04/22 19:39:14;;;;;;;4.60;2.53;;;16.90;92.10;;;;;;6321099;28;20048;-75
2023/04/22 19:42:19;;;;;;;5.00;2.55;;;16.80;92.20;;;;;;6321494;28;20496;-77
2023/04/22 19:45:21;;;;;;;4.72;2.40;;;16.80;92.30;;;;;;6333401;28;20043;-73
2023/04/22 19:48:26;;;;;;;6.88;2.72;;;16.70;92.50;;;;;;6322358;28;20132;-78
2023/04/22 19:51:28;;;;;;;5.82;2.72;;;16.80;92.70;;;;;;6320370;28;20193;-77
2023/04/22 19:54:32;;;;;;;6.18;2.72;;;16.70;92.90;;;;;;6327253;28;20051;-76
2023/04/22 19:57:37;;;;;;;;;;;16.70;92.70;;;;;;6347152;28;20605;-77
2023/04/22 20:00:41;;;;;;;4.88;3.00;;;16.70;92.60;;;;;;6339490;28;20379;-75
2023/04/22 20:03:45;;;;;;;4.82;2.17;;;16.80;92.80;;;;;;6319079;28;20064;-75
2023/04/22 20:06:54;;;;;;;5.88;2.63;;;16.80;92.70;;;;;;6321527;28;20120;-75
2023/04/22 20:09:57;;;;;;;7.05;3.30;;;16.80;92.50;;;;;;6321591;28;20054;-75
2023/04/22 20:13:02;;;;;;;5.90;2.72;;;16.80;92.80;;;;;;6322860;28;20076;-77
2023/04/22 20:16:05;;;;;;;4.70;2.40;;;16.80;92.90;;;;;;6340549;28;20074;-77
2023/04/22 20:19:10;;;;;;;6.07;3.53;;;16.60;92.80;;;;;;6346487;28;20082;-78
2023/04/22 20:22:14;;;;;;;6.80;2.97;;;16.70;92.50;;;;;;6343795;28;20097;-76
2023/04/22 20:25:17;;;;;;;6.57;2.72;;;16.70;92.40;;;;;;6329467;28;20048;-75
2023/04/22 20:28:20;;;;;;;7.22;3.33;;;16.80;92.50;;;;;;6319523;28;20060;-76
2023/04/22 20:31:22;;;;;;;6.93;2.88;;;16.70;92.60;;;;;;6319729;28;20052;-76
2023/04/22 20:34:27;;;;;;;4.17;2.40;;;16.70;92.60;;;;;;6324835;28;20414;-77
2023/04/22 20:37:32;;;;;;;5.82;2.40;;;16.70;92.70;;;;;;6343133;28;20051;-76
2023/04/22 20:40:37;;;;;;;5.25;2.53;;;16.70;92.80;;;;;;6327981;28;20052;-75
2023/04/22 20:43:39;;;;;;;4.00;2.08;;;16.70;93.00;;;;;;6329097;28;20614;-79
2023/04/22 20:46:41;;;;;;;5.80;2.42;;;16.70;93.00;;;;;;6346433;28;20185;-75
2023/04/22 20:49:45;;;;;;;4.28;2.30;;;16.70;93.00;;;;;;6347220;28;20043;-75
2023/04/22 20:52:47;;;;;;;;;;;16.70;92.90;;;;;;6345564;28;20050;-74
2023/04/22 20:55:49;;;;;;;5.28;2.25;;;16.70;92.80;;;;;;6328500;28;20024;-76
2023/04/22 20:58:51;;;;;;;6.25;2.30;;;16.70;93.10;;;;;;6321377;28;20040;-76
2023/04/22 21:01:54;;;;;;;4.18;2.53;;;16.70;93.30;;;;;;6322537;28;20051;-79
2023/04/22 21:05:01;;;;;;;4.33;2.30;;;16.60;93.30;;;;;;6324623;28;20044;-73
2023/04/22 21:08:08;;;;;;;6.22;2.60;;;16.60;93.50;;;;;;6325060;28;20324;-79
2023/04/22 21:11:11;;;;;;;3.83;2.40;;;16.60;93.60;;;;;;6323043;28;20062;-75
2023/04/22 21:14:14;;;;;;;5.70;2.33;;;16.50;93.90;;;;;;6322881;28;20047;-77
2023/04/22 21:17:21;;;;;;;5.53;2.85;;;16.50;94.20;;;;;;6321722;28;20048;-75
2023/04/22 21:20:30;;;;;;;4.75;2.38;;;16.60;94.50;;;;;;6305554;28;20060;-79
2023/04/22 21:23:33;;;;;;;7.55;2.80;;;16.60;94.40;;;;;;6295899;28;20494;-77
2023/04/22 21:26:38;;;;;;;6.93;2.78;;;16.40;94.50;;;;;;6296580;28;20071;-74
2023/04/22 21:29:41;;;;;;;6.03;2.60;;;16.50;94.50;;;;;;6300551;28;20489;-76
2023/04/22 21:32:43;;;;;;;6.53;2.80;;;16.40;94.80;;;;;;6308059;28;20044;-77
2023/04/22 21:35:46;;;;;;;5.18;2.70;;;16.50;94.70;;;;;;6299057;28;20049;-74
2023/04/22 21:38:49;;;;;;;6.65;3.15;;;16.50;95.10;;;;;;6298666;28;20041;-77
2023/04/22 21:41:51;;;;;;;6.03;3.23;;;16.50;94.90;;;;;;6307814;28;20489;-75
2023/04/22 21:44:55;;;;;;;5.05;2.67;;;16.50;94.70;;;;;;6319419;28;20041;-75
2023/04/22 21:47:58;;;;;;;4.72;2.80;;;16.40;94.70;;;;;;6299293;28;20393;-77
2023/04/22 21:51:01;;;;;;;5.80;2.83;;;16.50;95.50;;;;;;6313795;28;20040;-77
2023/04/22 21:54:03;;;;;;;6.38;2.75;;;16.50;95.90;;;;;;6324142;28;20055;-75
2023/04/22 21:57:05;;;;;;;5.88;3.15;;;16.40;96.00;;;;;;6299053;28;20055;-77
